createdAt,value
2018-10-18T00:02:19.392Z,19.93
2018-10-18T00:04:47.571Z,19.53
2018-10-18T00:07:15.755Z,19.63
2018-10-18T00:09:43.934Z,20.30
2018-10-18T00:12:12.227Z,18.60
2018-10-18T00:14:40.847Z,20.97
2018-10-18T00:17:14.430Z,20.20
2018-10-18T00:19:42.603Z,19.63
2018-10-18T00:22:10.786Z,20.30
2018-10-18T00:24:38.963Z,19.80
2018-10-18T00:27:07.146Z,19.87
2018-10-18T00:29:35.315Z,19.83
2018-10-18T00:32:03.597Z,21.77
2018-10-18T00:34:31.714Z,19.70
2018-10-18T00:36:59.917Z,19.87
2018-10-18T00:39:28.090Z,18.47
2018-10-18T00:41:56.314Z,21.33
2018-10-18T00:44:24.450Z,17.60
2018-10-18T00:46:52.623Z,19.10
2018-10-18T00:49:20.802Z,17.87
2018-10-18T00:51:48.975Z,18.80
2018-10-18T00:54:17.325Z,20.03
2018-10-18T00:56:45.334Z,17.93
2018-10-18T00:59:13.514Z,19.10
2018-10-18T01:01:41.678Z,18.00
2018-10-18T01:04:09.866Z,19.27
2018-10-18T01:06:38.043Z,20.17
2018-10-18T01:09:07.703Z,19.77
2018-10-18T01:11:35.898Z,17.37
2018-10-18T01:14:04.119Z,18.37
2018-10-18T01:16:32.257Z,17.73
2018-10-18T01:19:00.614Z,18.20
2018-10-18T01:21:28.783Z,18.10
2018-10-18T01:23:56.996Z,17.50
2018-10-18T01:26:25.139Z,16.10
2018-10-18T01:28:53.323Z,18.07
2018-10-18T01:31:21.495Z,17.80
2018-10-18T01:33:49.675Z,18.07
2018-10-18T01:36:17.887Z,16.23
2018-10-18T01:38:46.023Z,17.27
2018-10-18T01:41:14.197Z,16.70
2018-10-18T01:43:42.374Z,17.17
2018-10-18T01:46:10.562Z,17.73
2018-10-18T01:48:38.735Z,17.47
2018-10-18T01:51:06.914Z,17.87
2018-10-18T01:53:35.090Z,17.17
2018-10-18T01:56:03.305Z,18.67
2018-10-18T01:58:31.447Z,18.07
2018-10-18T02:00:59.630Z,17.33
2018-10-18T02:03:27.806Z,18.27
2018-10-18T02:05:56.011Z,18.07
2018-10-18T02:08:24.156Z,18.90
2018-10-18T02:10:52.331Z,18.27
2018-10-18T02:13:20.487Z,19.10
2018-10-18T02:15:48.654Z,17.43
2018-10-18T02:18:16.845Z,18.17
2018-10-18T02:20:44.978Z,17.97
2018-10-18T02:23:13.134Z,17.40
2018-10-18T02:25:41.310Z,17.23
2018-10-18T02:28:09.466Z,18.93
2018-10-18T02:30:37.643Z,18.07
2018-10-18T02:33:05.800Z,19.97
2018-10-18T02:35:33.962Z,16.83
2018-10-18T02:38:02.126Z,16.50
2018-10-18T02:40:30.290Z,16.30
2018-10-18T02:42:58.445Z,18.03
2018-10-18T02:45:26.610Z,17.47
2018-10-18T02:47:54.818Z,17.93
2018-10-18T02:50:22.976Z,18.20
2018-10-18T02:52:51.135Z,19.30
2018-10-18T02:55:19.451Z,18.70
2018-10-18T02:57:47.838Z,17.30
2018-10-18T03:00:16.085Z,16.57
2018-10-18T03:02:44.288Z,16.37
2018-10-18T03:05:12.439Z,16.80
2018-10-18T03:07:40.604Z,15.73
2018-10-18T03:10:09.207Z,16.80
2018-10-18T03:12:37.426Z,17.10
2018-10-18T03:15:06.686Z,17.47
2018-10-18T03:17:34.863Z,18.50
2018-10-18T03:20:03.063Z,18.03
2018-10-18T03:22:31.307Z,17.90
2018-10-18T03:24:59.497Z,17.00
2018-10-18T03:27:27.661Z,17.97
2018-10-18T03:29:55.888Z,18.53
2018-10-18T03:32:24.323Z,17.73
2018-10-18T03:34:52.831Z,16.60
2018-10-18T03:37:21.010Z,17.53
2018-10-18T03:39:49.179Z,18.60
2018-10-18T03:42:17.454Z,18.43
2018-10-18T03:44:45.539Z,17.07
2018-10-18T03:47:13.718Z,17.43
2018-10-18T03:49:41.892Z,17.50
2018-10-18T03:52:10.074Z,17.47
2018-10-18T03:54:38.257Z,17.17
2018-10-18T03:57:06.434Z,17.90
2018-10-18T03:59:34.667Z,17.30
2018-10-18T04:02:02.794Z,17.40
2018-10-18T04:04:30.978Z,18.10
2018-10-18T04:06:59.142Z,19.07
2018-10-18T04:09:27.318Z,17.77
2018-10-18T04:11:55.490Z,17.93
2018-10-18T04:14:23.647Z,18.57
2018-10-18T04:16:51.802Z,17.40
2018-10-18T04:19:19.974Z,18.07
2018-10-18T04:21:48.134Z,16.73
2018-10-18T04:24:16.356Z,18.33
2018-10-18T04:26:44.458Z,17.80
2018-10-18T04:29:12.631Z,17.50
2018-10-18T04:31:40.791Z,17.97
2018-10-18T04:34:08.958Z,19.60
2018-10-18T04:36:37.115Z,21.10
2018-10-18T04:39:07.843Z,19.87
2018-10-18T04:41:36.011Z,20.30
2018-10-18T04:44:04.210Z,19.83
2018-10-18T04:46:32.362Z,20.50
2018-10-18T04:49:00.553Z,22.00
2018-10-18T04:51:28.682Z,19.63
2018-10-18T04:53:56.850Z,24.00
2018-10-18T04:56:25.019Z,21.70
2018-10-18T04:58:53.192Z,22.43
2018-10-18T05:01:21.451Z,22.50
2018-10-18T05:03:49.573Z,23.07
2018-10-18T05:06:17.761Z,22.80
2018-10-18T05:08:45.959Z,23.37
2018-10-18T05:11:14.216Z,22.77
2018-10-18T05:13:42.322Z,22.90
2018-10-18T05:16:10.489Z,23.07
2018-10-18T05:18:38.642Z,23.70
2018-10-18T05:21:06.811Z,23.40
2018-10-18T05:23:34.963Z,22.83
2018-10-18T05:26:03.138Z,26.03
2018-10-18T05:28:31.298Z,24.70
2018-10-18T05:30:59.532Z,23.20
2018-10-18T05:33:27.643Z,25.13
2018-10-18T05:35:55.802Z,23.53
2018-10-18T05:38:23.975Z,24.87
2018-10-18T05:40:52.134Z,24.57
2018-10-18T05:43:22.888Z,23.60
2018-10-18T05:45:51.955Z,22.47
2018-10-18T05:48:20.258Z,23.20
2018-10-18T05:50:48.473Z,22.37
2018-10-18T05:53:16.725Z,23.57
2018-10-18T05:55:44.846Z,25.20
2018-10-18T05:58:13.003Z,25.30
2018-10-18T06:00:41.163Z,23.53
2018-10-18T06:03:09.327Z,26.50
2018-10-18T06:05:37.490Z,24.87
2018-10-18T06:08:05.803Z,26.30
2018-10-18T06:10:45.590Z,27.77
2018-10-18T06:13:13.806Z,25.97
2018-10-18T06:15:41.937Z,25.73
2018-10-18T06:18:10.102Z,26.40
2018-10-18T06:20:38.267Z,27.37
2018-10-18T06:23:06.711Z,26.57
2018-10-18T06:25:34.916Z,28.27
2018-10-18T06:28:03.126Z,31.10
2018-10-18T06:30:31.303Z,28.93
2018-10-18T06:32:59.506Z,27.70
2018-10-18T06:35:27.851Z,28.27
2018-10-18T06:37:56.025Z,29.93
2018-10-18T06:40:24.178Z,29.43
2018-10-18T06:42:52.385Z,27.17
2018-10-18T06:45:20.540Z,27.53
2018-10-18T06:47:48.921Z,27.43
2018-10-18T06:50:19.227Z,27.97
2018-10-18T06:52:47.388Z,26.27
2018-10-18T06:55:15.588Z,25.33
2018-10-18T06:57:44.271Z,25.40
2018-10-18T07:00:14.614Z,27.33
2018-10-18T07:02:43.258Z,27.63
2018-10-18T07:05:12.688Z,26.40
2018-10-18T07:07:41.047Z,27.17
2018-10-18T07:10:09.249Z,26.47
2018-10-18T07:12:38.321Z,29.63
2018-10-18T07:15:07.325Z,29.13
2018-10-18T07:17:36.219Z,28.90
2018-10-18T07:20:04.623Z,27.17
2018-10-18T07:22:32.802Z,29.10
2018-10-18T07:25:01.000Z,29.53
2018-10-18T07:27:29.170Z,29.40
2018-10-18T07:29:57.396Z,28.83
2018-10-18T07:32:26.046Z,30.83
2018-10-18T07:34:54.652Z,25.60
2018-10-18T07:37:23.007Z,27.93
2018-10-18T07:39:51.194Z,27.10
2018-10-18T07:42:19.524Z,31.83
2018-10-18T07:44:47.557Z,29.90
2018-10-18T07:47:15.910Z,31.57
2018-10-18T07:49:44.140Z,31.47
2018-10-18T07:52:12.363Z,35.70
2018-10-18T07:54:40.566Z,34.23
2018-10-18T07:57:08.734Z,36.10
2018-10-18T07:59:36.921Z,35.97
2018-10-18T08:02:05.105Z,34.87
2018-10-18T08:04:33.310Z,36.53
2018-10-18T08:07:01.505Z,38.47
2018-10-18T08:09:29.690Z,38.63
2018-10-18T08:11:57.859Z,36.00
2018-10-18T08:14:26.031Z,37.70
2018-10-18T08:16:54.302Z,41.70
2018-10-18T08:19:22.359Z,42.73
2018-10-18T08:21:50.531Z,48.33
2018-10-18T08:24:18.695Z,47.40
2018-10-18T08:26:46.868Z,50.57
2018-10-18T08:29:15.355Z,44.13
2018-10-18T08:31:43.526Z,44.40
2018-10-18T08:34:11.723Z,45.87
2018-10-18T08:36:39.927Z,56.43
2018-10-18T08:39:09.263Z,53.43
2018-10-18T08:41:37.442Z,58.27
2018-10-18T08:44:05.725Z,49.70
2018-10-18T08:46:33.779Z,53.77
2018-10-18T08:49:02.047Z,54.67
2018-10-18T08:51:30.394Z,50.73
2018-10-18T08:53:58.591Z,56.43
2018-10-18T08:56:26.771Z,57.53
2018-10-18T08:58:55.278Z,54.90
2018-10-18T09:01:23.446Z,47.67
2018-10-18T09:03:51.611Z,58.47
2018-10-18T09:06:19.787Z,50.93
2018-10-18T09:08:47.942Z,59.37
2018-10-18T09:11:16.138Z,55.43
2018-10-18T09:13:44.360Z,62.93
2018-10-18T09:16:12.783Z,51.77
2018-10-18T09:18:40.775Z,54.03
2018-10-18T09:21:08.995Z,48.23
2018-10-18T09:23:37.559Z,48.73
2018-10-18T09:26:05.742Z,49.30
2018-10-18T09:28:33.914Z,56.13
2018-10-18T09:31:02.179Z,49.20
2018-10-18T09:33:30.267Z,55.67
2018-10-18T09:35:58.499Z,48.07
2018-10-18T09:38:26.784Z,50.73
2018-10-18T09:40:54.855Z,55.53
2018-10-18T09:43:23.084Z,44.73
2018-10-18T09:45:51.258Z,46.80
2018-10-18T09:48:19.443Z,46.73
2018-10-18T09:50:47.627Z,49.77
2018-10-18T09:53:15.848Z,49.50
2018-10-18T09:55:44.096Z,48.00
2018-10-18T09:58:12.276Z,51.90
2018-10-18T10:00:45.863Z,47.33
2018-10-18T10:03:16.782Z,44.03
2018-10-18T10:05:44.960Z,47.30
2018-10-18T10:08:13.439Z,45.07
2018-10-18T10:10:41.629Z,44.40
2018-10-18T10:13:09.931Z,44.23
2018-10-18T10:15:37.998Z,45.97
2018-10-18T10:18:06.281Z,45.93
2018-10-18T10:20:34.358Z,45.33
2018-10-18T10:23:02.722Z,43.63
2018-10-18T10:25:30.927Z,42.30
2018-10-18T10:27:59.107Z,48.73
2018-10-18T10:30:27.558Z,47.53
2018-10-18T10:32:55.824Z,47.07
2018-10-18T10:35:23.983Z,43.07
2018-10-18T10:37:52.183Z,46.80
2018-10-18T10:40:20.468Z,45.07
2018-10-18T10:42:48.616Z,40.77
2018-10-18T10:45:16.827Z,43.60
2018-10-18T10:47:44.914Z,43.60
2018-10-18T10:50:13.220Z,46.27
2018-10-18T10:52:41.277Z,45.27
2018-10-18T10:55:10.560Z,41.47
2018-10-18T10:57:38.735Z,41.97
2018-10-18T11:00:07.200Z,45.80
2018-10-18T11:02:35.315Z,42.07
2018-10-18T11:05:03.519Z,42.00
2018-10-18T11:07:31.699Z,45.67
2018-10-18T11:09:59.933Z,40.50
2018-10-18T11:12:28.291Z,43.77
2018-10-18T11:14:56.378Z,42.83
2018-10-18T11:17:24.535Z,40.13
2018-10-18T11:19:52.729Z,38.33
2018-10-18T11:22:20.894Z,33.83
2018-10-18T11:24:49.149Z,35.50
2018-10-18T11:27:17.303Z,36.47
2018-10-18T11:29:45.438Z,35.50
2018-10-18T11:32:13.679Z,38.53
2018-10-18T11:34:42.072Z,35.50
2018-10-18T11:37:10.250Z,38.43
2018-10-18T11:39:38.438Z,36.53
2018-10-18T11:42:06.666Z,37.77
2018-10-18T11:44:39.063Z,37.27
2018-10-18T11:47:07.291Z,36.90
2018-10-18T11:49:35.502Z,35.07
2018-10-18T11:52:03.750Z,34.63
2018-10-18T11:54:31.915Z,31.53
2018-10-18T11:57:00.120Z,32.40
2018-10-18T11:59:28.374Z,28.23
2018-10-18T12:01:56.585Z,32.13
2018-10-18T12:04:24.746Z,27.97
2018-10-18T12:06:52.935Z,28.33
2018-10-18T12:09:21.118Z,27.27
2018-10-18T12:11:49.307Z,28.90
2018-10-18T12:14:17.517Z,27.10
2018-10-18T12:16:45.639Z,27.27
2018-10-18T12:19:13.884Z,29.13
2018-10-18T12:21:41.983Z,29.87
2018-10-18T12:24:10.155Z,25.13
2018-10-18T12:26:38.344Z,25.60
2018-10-18T12:29:06.611Z,27.73
2018-10-18T12:31:34.699Z,30.87
2018-10-18T12:34:02.904Z,28.33
2018-10-18T12:36:31.127Z,27.70
2018-10-18T12:38:59.317Z,25.90
2018-10-18T12:41:27.618Z,20.57
2018-10-18T12:43:55.664Z,23.30
2018-10-18T12:46:23.831Z,21.73
2018-10-18T12:48:51.995Z,23.87
2018-10-18T12:51:20.163Z,23.83
2018-10-18T12:53:48.323Z,22.60
2018-10-18T12:56:16.600Z,23.50
2018-10-18T12:58:44.818Z,23.37
2018-10-18T13:01:12.995Z,21.60
2018-10-18T13:03:41.154Z,21.47
2018-10-18T13:06:09.355Z,19.23
2018-10-18T13:08:37.510Z,21.47
2018-10-18T13:11:05.842Z,20.20
2018-10-18T13:13:34.180Z,17.67
2018-10-18T13:16:02.465Z,19.87
2018-10-18T13:18:30.648Z,26.63
2018-10-18T13:20:58.825Z,24.97
2018-10-18T13:23:26.995Z,20.57
2018-10-18T13:25:55.226Z,19.87
2018-10-18T13:28:23.335Z,21.50
2018-10-18T13:30:51.494Z,19.77
2018-10-18T13:33:19.666Z,18.37
2018-10-18T13:35:48.102Z,20.60
2018-10-18T13:38:16.325Z,21.20
2018-10-18T13:40:44.993Z,19.90
2018-10-18T13:43:13.162Z,19.30
2018-10-18T13:45:41.315Z,19.40
2018-10-18T13:48:09.546Z,20.37
2018-10-18T13:50:37.655Z,19.90
2018-10-18T13:53:06.142Z,21.83
2018-10-18T13:55:34.363Z,21.93
2018-10-18T13:58:02.539Z,20.87
2018-10-18T14:00:31.401Z,21.07
2018-10-18T14:02:59.618Z,21.67
2018-10-18T14:05:28.168Z,21.67
2018-10-18T14:07:56.927Z,20.83
2018-10-18T14:10:25.059Z,19.27
2018-10-18T14:12:53.820Z,20.83
2018-10-18T14:15:22.019Z,18.53
2018-10-18T14:17:50.343Z,20.67
2018-10-18T14:20:18.528Z,19.33
2018-10-18T14:22:46.650Z,20.03
2018-10-18T14:25:14.827Z,19.50
2018-10-18T14:27:43.035Z,20.50
2018-10-18T14:30:12.509Z,22.93
2018-10-18T14:32:40.662Z,21.20
2018-10-18T14:35:10.428Z,18.90
2018-10-18T14:37:38.618Z,19.97
2018-10-18T14:40:07.786Z,19.17
2018-10-18T14:42:36.175Z,19.70
2018-10-18T14:45:05.654Z,20.00
2018-10-18T14:47:33.834Z,19.77
2018-10-18T14:50:02.111Z,18.63
2018-10-18T14:52:30.247Z,20.03
2018-10-18T14:54:58.438Z,20.47
2018-10-18T14:57:26.681Z,18.20
2018-10-18T14:59:54.806Z,17.50
2018-10-18T15:02:22.984Z,19.63
2018-10-18T15:04:51.171Z,19.23
2018-10-18T15:07:19.530Z,19.33
2018-10-18T15:09:47.759Z,17.30
2018-10-18T15:12:15.943Z,20.43
2018-10-18T15:14:44.127Z,18.93
2018-10-18T15:17:12.467Z,19.17
2018-10-18T15:19:40.503Z,18.10
2018-10-18T15:22:08.975Z,19.57
2018-10-18T15:24:37.167Z,17.90
2018-10-18T15:27:05.836Z,17.40
2018-10-18T15:29:33.849Z,16.80
2018-10-18T15:32:02.201Z,18.50
2018-10-18T15:34:30.287Z,17.00
2018-10-18T15:36:58.595Z,17.60
2018-10-18T15:39:26.852Z,17.67
2018-10-18T15:41:54.966Z,17.97
2018-10-18T15:44:23.249Z,20.63
2018-10-18T15:46:51.331Z,18.30
2018-10-18T15:49:19.522Z,17.90
2018-10-18T15:51:47.727Z,19.27
2018-10-18T15:54:16.029Z,20.63
2018-10-18T15:56:44.098Z,20.20
2018-10-18T15:59:12.383Z,19.73
2018-10-18T16:01:40.499Z,19.53
2018-10-18T16:04:08.674Z,21.00
2018-10-18T16:06:36.871Z,20.23
2018-10-18T16:09:08.589Z,20.93
2018-10-18T16:11:36.908Z,21.47
2018-10-18T16:14:05.100Z,21.03
2018-10-18T16:16:33.319Z,25.83
2018-10-18T16:19:01.499Z,21.37
2018-10-18T16:21:29.691Z,20.47
2018-10-18T16:23:57.929Z,21.77
2018-10-18T16:26:26.286Z,20.37
2018-10-18T16:28:54.375Z,21.57
2018-10-18T16:31:22.590Z,22.23
2018-10-18T16:33:50.837Z,22.23
2018-10-18T16:36:18.950Z,21.87
2018-10-18T16:38:47.135Z,23.77
2018-10-18T16:41:15.547Z,21.57
2018-10-18T16:43:43.531Z,21.90
2018-10-18T16:46:11.810Z,20.83
2018-10-18T16:48:39.967Z,22.33
2018-10-18T16:51:08.162Z,22.40
2018-10-18T16:53:36.381Z,20.43
2018-10-18T16:56:05.017Z,25.53
2018-10-18T16:58:33.194Z,20.40
2018-10-18T17:01:01.388Z,26.07
2018-10-18T17:03:29.570Z,21.03
2018-10-18T17:05:57.836Z,21.10
2018-10-18T17:08:25.971Z,22.13
2018-10-18T17:10:54.559Z,24.87
2018-10-18T17:13:22.731Z,20.97
2018-10-18T17:15:50.890Z,26.40
2018-10-18T17:18:19.092Z,22.93
2018-10-18T17:20:47.333Z,22.73
2018-10-18T17:23:15.645Z,22.87
2018-10-18T17:25:43.791Z,21.80
2018-10-18T17:28:11.963Z,28.50
2018-10-18T17:30:40.147Z,24.27
2018-10-18T17:33:08.355Z,31.57
2018-10-18T17:35:36.531Z,26.57
2018-10-18T17:38:05.027Z,30.53
2018-10-18T17:40:33.143Z,27.77
2018-10-18T17:43:01.594Z,27.10
2018-10-18T17:45:29.759Z,31.87
2018-10-18T17:47:57.967Z,27.90
2018-10-18T17:50:26.102Z,28.50
2018-10-18T17:52:54.422Z,33.80
2018-10-18T17:55:22.443Z,31.30
2018-10-18T17:57:50.614Z,31.53
2018-10-18T18:00:18.853Z,36.73
2018-10-18T18:02:46.946Z,30.20
2018-10-18T18:05:15.109Z,29.37
2018-10-18T18:07:43.301Z,35.10
2018-10-18T18:10:13.490Z,28.47
2018-10-18T18:12:41.698Z,34.90
2018-10-18T18:15:10.400Z,28.97
2018-10-18T18:17:38.811Z,35.23
2018-10-18T18:20:08.052Z,31.67
2018-10-18T18:22:36.232Z,37.57
2018-10-18T18:25:05.622Z,32.07
2018-10-18T18:27:33.804Z,41.10
2018-10-18T18:30:01.989Z,34.03
2018-10-18T18:32:30.166Z,39.10
2018-10-18T18:34:58.363Z,28.33
2018-10-18T18:37:26.551Z,36.10
2018-10-18T18:39:54.743Z,28.10
2018-10-18T18:42:22.923Z,33.40
2018-10-18T18:44:55.389Z,29.87
2018-10-18T18:47:23.612Z,34.23
2018-10-18T18:49:51.735Z,36.20
2018-10-18T18:52:19.964Z,30.87
2018-10-18T18:54:48.189Z,36.43
2018-10-18T18:57:16.423Z,38.03
2018-10-18T18:59:44.610Z,30.97
2018-10-18T19:02:12.806Z,36.83
2018-10-18T19:04:40.999Z,33.73
2018-10-18T19:07:09.174Z,38.17
2018-10-18T19:09:37.370Z,32.87
2018-10-18T19:12:05.691Z,37.87
2018-10-18T19:14:33.883Z,37.00
2018-10-18T19:17:02.068Z,36.53
2018-10-18T19:19:30.267Z,35.87
2018-10-18T19:21:58.714Z,37.37
2018-10-18T19:24:26.903Z,29.87
2018-10-18T19:26:55.106Z,36.07
2018-10-18T19:29:23.287Z,32.90
2018-10-18T19:31:51.510Z,29.67
2018-10-18T19:34:19.946Z,35.93
2018-10-18T19:36:48.173Z,36.80
2018-10-18T19:39:16.397Z,37.17
2018-10-18T19:41:44.604Z,31.00
2018-10-18T19:44:12.882Z,29.70
2018-10-18T19:46:41.199Z,36.60
2018-10-18T19:49:09.547Z,30.43
2018-10-18T19:51:37.811Z,36.30
2018-10-18T19:54:06.008Z,31.17
2018-10-18T19:56:34.219Z,35.17
2018-10-18T19:59:02.416Z,30.13
2018-10-18T20:01:30.592Z,38.60
2018-10-18T20:03:59.309Z,39.37
2018-10-18T20:06:27.588Z,33.53
2018-10-18T20:08:55.879Z,39.93
2018-10-18T20:11:24.059Z,35.17
2018-10-18T20:13:52.299Z,39.73
2018-10-18T20:16:20.897Z,32.40
2018-10-18T20:18:49.106Z,32.83
2018-10-18T20:21:17.418Z,32.17
2018-10-18T20:23:45.727Z,31.57
2018-10-18T20:26:14.257Z,39.10
2018-10-18T20:28:42.070Z,31.10
2018-10-18T20:31:10.311Z,37.17
2018-10-18T20:33:38.646Z,39.20
2018-10-18T20:36:07.116Z,32.43
2018-10-18T20:38:35.355Z,36.80
2018-10-18T20:41:03.622Z,33.33
2018-10-18T20:43:31.799Z,32.70
2018-10-18T20:46:00.114Z,32.27
2018-10-18T20:48:28.475Z,30.97
2018-10-18T20:50:56.819Z,33.90
2018-10-18T20:53:25.260Z,33.67
2018-10-18T20:55:53.565Z,33.53
2018-10-18T20:58:21.819Z,33.13
2018-10-18T21:00:49.959Z,33.90
2018-10-18T21:03:18.202Z,31.50
2018-10-18T21:05:46.515Z,33.87
2018-10-18T21:08:14.875Z,34.20
2018-10-18T21:10:43.138Z,31.43
2018-10-18T21:13:11.363Z,33.03
2018-10-18T21:15:39.467Z,34.07
2018-10-18T21:18:07.711Z,32.53
2018-10-18T21:20:35.846Z,32.77
2018-10-18T21:23:04.445Z,30.83
2018-10-18T21:25:32.602Z,32.20
2018-10-18T21:28:01.678Z,30.83
2018-10-18T21:30:29.866Z,32.57
2018-10-18T21:32:58.188Z,31.70
2018-10-18T21:35:26.355Z,30.83
2018-10-18T21:37:54.622Z,32.20
2018-10-18T21:40:23.459Z,31.10
2018-10-18T21:42:51.627Z,31.43
2018-10-18T21:45:19.999Z,30.17
2018-10-18T21:47:48.250Z,31.57
2018-10-18T21:50:16.423Z,30.87
2018-10-18T21:52:44.686Z,33.63
2018-10-18T21:55:12.855Z,30.90
2018-10-18T21:57:41.023Z,33.27
2018-10-18T22:00:13.667Z,32.80
2018-10-18T22:02:42.477Z,33.47
2018-10-18T22:05:10.889Z,31.87
2018-10-18T22:07:38.995Z,33.10
2018-10-18T22:10:07.170Z,31.13
2018-10-18T22:12:35.666Z,32.30
2018-10-18T22:15:04.247Z,31.70
2018-10-18T22:17:32.391Z,31.43
2018-10-18T22:20:00.610Z,31.77
2018-10-18T22:22:28.775Z,30.80
2018-10-18T22:24:56.975Z,30.83
2018-10-18T22:27:25.165Z,32.13
2018-10-18T22:29:53.417Z,31.40
2018-10-18T22:32:21.614Z,30.90
2018-10-18T22:34:49.787Z,29.40
2018-10-18T22:37:18.020Z,31.40
2018-10-18T22:39:46.111Z,31.40
2018-10-18T22:42:14.274Z,33.37
2018-10-18T22:44:42.447Z,32.20
2018-10-18T22:47:10.664Z,31.70
2018-10-18T22:49:38.780Z,30.50
2018-10-18T22:52:06.943Z,30.50
2018-10-18T22:54:35.119Z,30.17
2018-10-18T22:57:03.296Z,31.00
2018-10-18T22:59:31.455Z,31.40
2018-10-18T23:01:59.615Z,31.33
2018-10-18T23:04:27.783Z,30.30
2018-10-18T23:06:55.947Z,31.03
2018-10-18T23:09:24.135Z,29.93
2018-10-18T23:11:52.310Z,31.70
2018-10-18T23:14:20.540Z,29.63
2018-10-18T23:16:48.742Z,28.37
2018-10-18T23:19:16.916Z,29.20
2018-10-18T23:21:45.096Z,30.33
2018-10-18T23:24:13.254Z,29.60
2018-10-18T23:26:41.417Z,29.07
2018-10-18T23:29:09.615Z,28.80
2018-10-18T23:31:37.743Z,30.33
2018-10-18T23:34:06.101Z,29.07
2018-10-18T23:36:34.286Z,30.37
2018-10-18T23:39:02.557Z,30.13
2018-10-18T23:41:30.678Z,30.20
2018-10-18T23:43:59.026Z,28.53
2018-10-18T23:46:27.194Z,30.57
2018-10-18T23:48:55.350Z,28.83
2018-10-18T23:51:23.515Z,29.40
2018-10-18T23:53:51.675Z,30.10
2018-10-18T23:56:19.878Z,29.43
2018-10-18T23:58:48.067Z,29.40
